Central Sierra Snow Lab Weather observations

Data are for 10 minute period ending at time listed.
 Day   Time    Incoming  Reflected   Ave.   Ave.    Ave.    Vector  Max.    Ave.    Total    Snow   
  of    of      Solar     Solar      Air    Rel.    Wind    Wind    Wind   Baro.   Precip.   Depth  
Year   Day     Radiation Radiation   Temp.  Humid.  Speed   Dir.    Gust   Press.                   
2020   (PST)    Kw/m2     Kw/m2       F       %      mph     deg.    mph     mb.     in.      in.   
----------------------------------------------------------------------------------------------------
 292   21:50    0.000     999.000     43.5     36     2.4      35     3.8   796.90   -2.96   164.90  
 292   22:00    0.000     999.000     43.2     34     2.6      33     4.0   796.90   -2.96   164.90  
 292   22:10    0.000     999.000     42.9     34     2.5      35     4.2   796.90   -2.96   164.90  
 292   22:20    0.000     999.000     42.7     35     3.2      26     4.4   796.90   -2.96   164.90  
 292   22:30    0.000     999.000     42.6     35     3.9      30     5.0   796.90   -2.96   164.90  
 292   22:40    0.000     999.000     42.7     36     2.8      34     5.1   796.90   -2.96   164.90  
 292   22:50    0.000     999.000     42.5     40     1.3      42     1.8   797.00   -2.96   164.90  
 292   23:00    0.000     999.000     42.7     41     2.5      35     3.6   797.00   -2.96   164.90  
 292   23:10    0.000     999.000     42.9     42     3.0      33     4.4   797.00   -2.96   164.90  
 292   23:20    0.000     999.000     42.7     43     2.6      34     4.1   797.00   -2.96   165.10  
 292   23:30    0.000     999.000     42.5     46     2.1      32     3.1   797.00   -2.96   165.40  
 292   23:40    0.000     999.000     42.2     48     2.3      33     4.1   797.00   -2.96   164.90  
 292   23:50    0.000     999.000     42.4     50     3.0      31     4.7   797.00   -2.96   164.90  
 293    0:00    0.000     999.000     42.5     50     2.6      37     4.9   796.90   -2.96   164.90  
 293    0:10    0.000     999.000     42.5     51     2.4      33     4.9   796.80   -2.96   164.90  
 293    0:20    0.000     999.000     42.4     50     2.8      32     5.0   796.80   -2.96   164.90  
 293    0:30    0.000     999.000     42.1     51     2.6      32     4.4   796.70   -2.96   164.90  
 293    0:40    0.000     999.000     41.7     53     2.2      34     4.1   796.60   -2.96   164.90  
 293    0:50    0.000     999.000     41.4     54     2.4      33     3.5   796.60   -2.96   164.90  
 293    1:00    0.000     999.000     41.2     54     2.7      32     4.6   796.50   -2.96   164.90  
 293    1:10    0.000     999.000     41.1     55     2.2      36     4.9   796.40   -2.96   165.20  
 293    1:20    0.000     999.000     40.9     55     3.8      29     4.7   796.40   -2.96   165.50  
 293    1:30    0.000     999.000     40.8     55     3.3      34     4.6   796.40   -2.96   165.50  
 293    1:40    0.000     999.000     40.6     56     3.6      30     4.8   796.40   -2.96   165.60  
 293    1:50    0.000     999.000     40.5     56     2.7      33     4.3   796.40   -2.96   165.50  
 293    2:00    0.000     999.000     40.4     56     2.6      32     4.0   796.40   -2.96   165.30  
 293    2:10    0.000     999.000     40.2     56     2.7      32     4.0   796.40   -2.96   165.40  
 293    2:20    0.000     999.000     40.0     56     2.4      31     4.2   796.30   -2.96   165.20  
 293    2:30    0.000     999.000     39.8     55     2.3      33     4.3   796.20   -2.96   165.60  
 293    2:40    0.000     999.000     39.7     55     3.6      30     5.0   796.20   -2.96   165.60  
 293    2:50    0.000     999.000     39.7     55     1.7      36     3.7   796.20   -2.96   165.60  
 293    3:00    0.000     999.000     39.7     55     2.2      33     3.4   796.20   -2.96   165.60  
 293    3:10    0.000     999.000     39.6     54     3.5      29     4.1   796.10   -2.96   165.50  
 293    3:20    0.000     999.000     39.5     54     4.3      27     5.1   796.00   -2.96   165.50  
 293    3:30    0.000     999.000     39.6     54     5.0      26     5.3   796.00   -2.96   165.50  
 293    3:40    0.000     999.000     39.4     54     4.8      26     5.1   796.00   -2.96   165.50  
 293    3:50    0.000     999.000     39.4     53     4.8      28     5.4   796.00   -2.96   165.50  
 293    4:00    0.000     999.000     39.3     53     4.3      27     4.8   795.90   -2.96   165.60  
 293    4:10    0.000     999.000     39.4     53     5.0      26     5.3   795.90   -2.96   165.60  
 293    4:20    0.000     999.000     39.4     53     5.1      25     5.5   795.90   -2.96   165.60  
 293    4:30    0.000     999.000     39.3     53     4.4      26     5.2   796.00   -2.96   165.60  
 293    4:40    0.000     999.000     39.2     54     4.6      27     4.9   796.00   -2.96   165.60  
 293    4:50    0.000     999.000     39.1     55     4.9      26     5.2   795.90   -2.96   165.60  
 293    5:00    0.000     999.000     39.1     56     4.3      30     5.0   796.00   -2.96   165.50  
 293    5:10    0.000     999.000     39.0     56     4.3      28     5.0   796.00   -2.96   165.10  
 293    5:20    0.000     999.000     39.0     57     4.8      27     5.2   796.00   -2.96   164.90  
 293    5:30    0.000     999.000     38.9     58     4.4      26     5.0   796.00   -2.96   164.90  
 293    5:40    0.000     999.000     38.8     59     4.2      30     5.0   796.00   -2.96   164.90  
 293    5:50    0.000     999.000     38.7     60     4.5      29     5.3   796.00   -2.96   164.90  
 293    6:00    0.000     999.000     38.7     60     4.4      26     5.0   796.10   -2.96   164.90  
 293    6:10    0.001     999.000     38.5     60     3.4      30     4.3   796.20   -2.96   164.90  
 293    6:20    0.002     999.000     38.3     60     2.9      32     4.5   796.20   -2.96   165.00  
 293    6:30    0.004     999.000     38.3     60     3.3      32     4.5   796.30   -2.96   165.00  
 293    6:40    0.006     999.000     38.3     60     2.6      31     4.3   796.20   -2.96   165.00  
 293    6:50    0.008     999.000     38.4     58     3.9      30     4.7   796.20   -2.96   164.90  
 293    7:00    0.010     999.000     38.6     57     4.9      27     5.4   796.30   -2.96   164.90  
 293    7:10    0.011     999.000     38.7     56     4.3      27     5.1   796.40   -2.96   165.20  
 293    7:20    0.012     999.000     38.7     57     2.2      34     3.6   796.40   -2.96   165.50  
 293    7:30    0.013     999.000     39.3     57     2.0      31     3.6   796.30   -2.96   164.90  
 293    7:40    0.017     999.000     40.3     54     2.0      32     3.5   796.30   -2.96   164.90  
 293    7:50    0.028     999.000     42.4     45     2.3      33     4.0   796.40   -2.96   165.50  
 293    8:00    0.046     999.000     44.5     41     1.9      39     2.5   796.40   -2.96   165.10  
 293    8:10    0.027     999.000     46.4     40     1.7      35     3.2   796.40   -2.96   165.00  
 293    8:20    0.027     999.000     48.7     37     0.7      31     1.6   796.40   -2.96   164.80  
 293    8:30    0.037     999.000     51.5     33     0.2      22     1.7   796.50   -2.96   164.80  
 293    8:40    0.261     999.000     54.2     30     0.1      88     1.4   796.50   -2.96   164.80  
 293    8:50    0.411     999.000     57.7     26     0.3     133     2.1   796.50   -2.96   164.70  
 293    9:00    0.434     999.000     59.7     24     0.4     161     1.9   796.50   -2.96   164.60  
 293    9:10    0.453     999.000     60.7     22     1.3     236     4.5   796.40   -2.96   164.30  
 293    9:20    0.476     999.000     60.9     22     2.0     202     4.3   796.40   -2.96   46.80  
 293    9:30    0.493     999.000     61.3     21     2.2     213     5.2   796.40   -2.96   163.50  
 293    9:40    0.525     999.000     62.2     21     1.8     239     5.4   796.40   -2.96   116.20  
 293    9:50    0.563     999.000     62.3     21     2.7     193     6.6   796.30   -2.96   55.10  
 293   10:00    0.585     999.000     63.6     19     2.7     216     6.6   796.30   -2.96   -4.50  
 293   10:10    0.596     999.000     64.1     18     3.2     230     6.7   796.30   -2.96   -4.20  
 293   10:20    0.599     999.000     64.7     18     2.5     239     8.6   796.20   -2.96   -4.40  
 293   10:30    0.610     999.000     65.5     18     2.6     212     7.3   796.20   -2.96   -4.40  
 293   10:40    0.622     999.000     65.9     18     2.5     215     6.1   796.10   -2.96   -4.50  
 293   10:50    0.632     999.000     66.2     17     3.1     257     8.0   796.10   -2.96   -4.40  
 293   11:00    0.642     999.000     65.8     17     3.3     228     7.6   796.10   -2.96   -4.40  
 293   11:10    0.650     999.000     66.2     17     3.4     189     7.8   796.00   -2.96   -4.30  
 293   11:20    0.657     999.000     66.0     16     2.7     244     5.7   796.00   -2.96   -4.40  
 293   11:30    0.661     999.000     66.2     17     3.1     229     8.2   796.00   -2.96   -4.30  
 293   11:40    0.664     999.000     66.8     17     2.9     242     7.4   796.00   -2.96   -4.30  
 293   11:50    0.666     999.000     66.6     16     3.8     215     8.2   796.00   -2.96   -4.30  
 293   12:00    0.667     999.000     67.1     16     3.0     196     6.8   795.90   -2.96   -4.30  
 293   12:10    0.668     999.000     67.5     15     2.6     268     7.9   795.90   -2.96   -4.50  
 293   12:20    0.667     999.000     67.9     15     2.4     232     6.2   795.70   -2.96   -4.70  
 293   12:30    0.663     999.000     68.8     14     2.8     260     7.3   795.60   -2.96   -4.60  
 293   12:40    0.656     999.000     69.0     14     2.3     222     8.3   795.50   -2.96   -4.60  
 293   12:50    0.647     999.000     69.5     14     3.2     257     8.9   795.40   -2.96   -4.40  
 293   13:00    0.637     999.000     68.8     14     2.6     263     6.4   795.30   -2.96   -4.40  
 293   13:10    0.626     999.000     69.8     14     2.5     205     6.1   795.20   -2.96   -4.20  
 293   13:20    0.613     999.000     69.5     14     3.0     238     8.6   795.10   -2.96   -4.40  
 293   13:30    0.599     999.000     69.7     14     2.2     207     5.0   795.00   -2.96   -4.30  
 293   13:40    0.584     999.000     69.8     14     2.5     206     5.7   794.90   -2.96   -4.00  
 293   13:50    0.566     999.000     70.6     14     2.5     227     5.7   794.80   -2.96   -4.10  
 293   14:00    0.545     999.000     70.5     14     2.9     215     5.5   794.70   -2.96   -4.00  
 293   14:10    0.525     999.000     70.3     14     3.0     196     6.4   794.70   -2.96   -3.90  
 293   14:20    0.503     999.000     69.7     15     3.2     213     9.3   794.60   -2.96   -3.90  
 293   14:30    0.447     999.000     69.4     15     2.6     233     6.6   794.70   -2.96   -3.80  
 293   14:40    0.196     999.000     69.1     15     2.4     200     5.3   794.60   -2.96   -3.60  
 293   14:50    0.149     999.000     69.5     15     2.4     241     5.5   794.60   -2.96   -3.50  
 293   15:00    0.397     999.000     69.5     15     2.5     226     5.3   794.60   -2.96   76.90  
 293   15:10    0.174     999.000     68.9     16     2.4     225     6.8   794.60   -2.96   -3.50  
 293   15:20    0.070     999.000     68.9     16     2.3     234     7.1   794.60   -2.96   -0.50  
 293   15:30    0.227     999.000     69.1     16     2.1     217     4.0   794.60   -2.96    4.20  
 293   15:40    0.216     999.000     68.5     17     2.3     234     5.7   794.50   -2.96   22.40  
 293   15:50    0.061     999.000     67.9     18     2.2     274     6.6   794.50   -2.96   -3.40  
 293   16:00    0.050     999.000     67.7     19     2.9     263     6.5   794.50   -2.96   -3.40  
 293   16:10    0.144     999.000     67.6     20     2.2     219     5.0   794.50   -2.96   -3.50  
 293   16:20    0.117     999.000     67.0     20     2.1     235     4.5   794.50   -2.96   -3.40  
 293   16:30    0.115     999.000     66.9     21     2.0     252     5.6   794.50   -2.96   103.10  
 293   16:40    0.023     999.000     65.2     23     0.6     217     4.2   794.50   -2.96   163.60  
 293   16:50    0.016     999.000     64.3     24     1.6     246     5.6   794.50   -2.96   164.10  
 293   17:00    0.012     999.000     63.5     25     0.7     260     3.8   794.60   -2.96   164.20  
 293   17:10    0.009     999.000     62.2     26     0.5     178     2.1   794.70   -2.96   164.40  
 293   17:20    0.004     999.000     61.3     28     0.0     150     1.0   794.70   -2.96   164.60  
 293   17:30    0.002     999.000     60.0     28     0.2     216     1.2   794.80   -2.96   164.60  
 293   17:40    0.000     999.000     58.5     30     1.8      20     3.4   794.90   -2.96   164.60  
 293   17:50    0.000     999.000     57.0     31     1.7      28     3.2   794.90   -2.96   164.60  
 293   18:00    0.000     999.000     55.9     32     2.1      26     3.5   794.90   -2.96   164.60  
 293   18:10    0.000     999.000     54.7     34     2.7      30     3.7   795.00   -2.96   164.70  
 293   18:20    0.000     999.000     53.8     35     2.3      31     3.1   795.10   -2.96   164.70  
 293   18:30    0.000     999.000     53.0     36     2.1      31     4.0   795.20   -2.96   164.70  
 293   18:40    0.000     999.000     52.2     37     2.6      30     3.5   795.20   -2.96   164.70  
 293   18:50    0.000     999.000     51.4     38     1.3      31     2.7   795.20   -2.96   164.80  
 293   19:00    0.000     999.000     50.7     40     1.9      31     3.5   795.20   -2.96   164.80  
 293   19:10    0.000     999.000     50.1     41     3.2      30     5.1   795.30   -2.96   164.80  
 293   19:20    0.000     999.000     49.7     42     3.8      28     5.6   795.20   -2.96   164.80  
 293   19:30    0.000     999.000     49.2     42     3.0      31     4.1   795.20   -2.96   164.80  
 293   19:40    0.000     999.000     48.6     44     1.4      46     4.2   795.20   -2.96   164.80  
 293   19:50    0.000     999.000     48.2     45     2.0      36     3.8   795.10   -2.96   164.80  
 293   20:00    0.000     999.000     47.8     45     2.6      31     4.9   795.10   -2.96   164.80  
 293   20:10    0.000     999.000     47.4     45     1.5      36     3.1   795.00   -2.96   164.80  
 293   20:20    0.000     999.000     46.9     46     2.1      36     3.6   795.00   -2.96   164.80  
 293   20:30    0.000     999.000     46.4     46     2.2      42     4.0   795.10   -2.96   164.80  
 293   20:40    0.000     999.000     46.1     46     2.3      34     3.9   795.20   -2.96   164.80  
 293   20:50    0.000     999.000     45.8     46     1.3      27     3.4   795.20   -2.96   164.80  
 293   21:00    0.000     999.000     45.6     46     2.4      28     3.6   795.20   -2.96   164.80  
 293   21:10    0.000     999.000     45.4     45     2.3      35     3.7   795.20   -2.96   164.80  
 293   21:20    0.000     999.000     45.3     45     1.6      40     3.0   795.20   -2.96   164.80  
 293   21:30    0.000     999.000     45.3     44     2.3      28     3.6   795.30   -2.96   164.80  
 293   21:40    0.000     999.000     45.1     45     2.1      29     3.7   795.30   -2.96   164.80  

Return to Central Sierra Snow Lab graphs page.


Western Regional Climate Center,wrcc@dri.edu